Time;durP1;ratioP1;P1;durP2;ratioP2;P2;SDS_P1;SDS_P2;PMS_P1;PMS_P2;Temp;Humidity;BMP_temperature;BMP_pressure;BME280_temperature;BME280_humidity;BME280_pressure;Samples;Min_cycle;Max_cycle;Signal;HPM_P1;HPM_P2
2022/12/27 00:01:10;;;;;;;1.63;0.60;;;8.20;99.90;;;;;;21032465;28;20285;-67
2022/12/27 00:11:12;;;;;;;0.37;0.27;;;;;;;;;;21038409;28;20299;-67
2022/12/27 00:21:16;;;;;;;0.10;0.10;;;;;;;;;;21077170;28;20217;-68
2022/12/27 00:31:19;;;;;;;0.40;0.20;;;8.00;99.90;;;;;;21094873;28;20269;-67
2022/12/27 00:41:22;;;;;;;0.63;0.43;;;7.90;99.90;;;;;;21059435;28;20232;-68
2022/12/27 00:51:24;;;;;;;1.77;0.60;;;;;;;;;;21073520;28;20225;-68
2022/12/27 01:01:27;;;;;;;0.70;0.40;;;;;;;;;;21074810;28;20235;-67
2022/12/27 01:11:30;;;;;;;3.93;0.57;;;6.20;99.90;;;;;;21074396;28;20642;-68
2022/12/27 01:21:32;;;;;;;0.30;0.10;;;;;;;;;;21073072;28;20757;-68
2022/12/27 01:31:35;;;;;;;0.70;0.33;;;;;;;;;;21075350;22;20699;-67
2022/12/27 01:51:59;;;;;;;1.03;0.40;;;;;;;;;;21055470;28;20275;-67
2022/12/27 02:02:02;;;;;;;0.50;0.30;;;7.70;99.90;;;;;;21022192;28;20212;-67
2022/12/27 02:12:06;;;;;;;0.13;0.13;;;;;;;;;;21053261;28;20301;-67
2022/12/27 02:33:15;;;;;;;0.23;0.20;;;7.00;99.90;;;;;;21033350;28;20586;-67
2022/12/27 02:53:59;;;;;;;0.50;0.30;;;7.00;99.90;;;;;;21029379;28;20579;-68
2022/12/27 03:04:31;;;;;;;0.87;0.20;;;7.00;99.90;;;;;;21035099;28;20273;-68
2022/12/27 03:35:21;;;;;;;0.57;0.30;;;;;;;;;;21053029;28;20220;-67
2022/12/27 03:46:32;;;;;;;0.93;0.47;;;;;;;;;;21050447;28;20217;-67
2022/12/27 03:55:45;;;;;;;0.60;0.27;;;;;;;;;;21051670;28;20293;-67
2022/12/27 04:05:47;;;;;;;0.10;0.10;;;;;;;;;;21048611;28;20217;-67
2022/12/27 04:36:30;;;;;;;0.10;0.10;;;;;;;;;;21048345;28;20274;-67
2022/12/27 04:56:53;;;;;;;0.20;0.20;;;;;;;;;;21061524;28;20300;-68
2022/12/27 05:06:56;;;;;;;0.27;0.20;;;;;;;;;;21007939;28;20246;-67
2022/12/27 05:16:58;;;;;;;0.50;0.20;;;;;;;;;;20982184;28;20229;-67
2022/12/27 05:27:00;;;;;;;0.73;0.37;;;;;;;;;;21058378;28;20208;-68
2022/12/27 05:37:02;;;;;;;0.93;0.50;;;;;;;;;;21041439;28;20228;-68
2022/12/27 05:47:04;;;;;;;0.27;0.20;;;;;;;;;;21023085;28;20246;-67
2022/12/27 05:57:06;;;;;;;0.87;0.20;;;;;;;;;;21022590;28;20702;-67
2022/12/27 06:07:10;;;;;;;2.60;0.30;;;;;;;;;;21021899;28;20208;-68
2022/12/27 06:17:12;;;;;;;0.20;0.20;;;;;;;;;;21037614;28;20273;-67
2022/12/27 06:27:14;;;;;;;0.60;0.50;;;;;;;;;;21037134;28;20224;-67
2022/12/27 06:37:17;;;;;;;0.50;0.37;;;;;;;;;;21069448;28;20699;-67
2022/12/27 06:47:18;;;;;;;0.20;0.20;;;;;;;;;;21036108;28;20200;-67
2022/12/27 06:57:20;;;;;;;0.70;0.30;;;;;;;;;;21032171;28;20216;-68
2022/12/27 07:07:22;;;;;;;1.13;0.70;;;;;;;;;;21034704;28;20204;-67
2022/12/27 07:17:24;;;;;;;2.03;1.07;;;;;;;;;;21050274;28;20236;-67
2022/12/27 07:27:26;;;;;;;0.80;0.50;;;;;;;;;;21049716;28;20212;-66
2022/12/27 07:37:28;;;;;;;0.53;0.33;;;;;;;;;;21023438;28;20273;-67
2022/12/27 07:47:30;;;;;;;1.50;0.50;;;;;;;;;;21028856;28;20776;-67
2022/12/27 07:57:32;;;;;;;1.53;0.80;;;;;;;;;;21047298;28;20220;-67
2022/12/27 08:07:35;;;;;;;3.23;0.87;;;;;;;;;;21037141;28;20601;-67
2022/12/27 08:17:37;;;;;;;2.27;0.87;;;;;;;;;;21068757;28;20212;-68
2022/12/27 08:27:39;;;;;;;0.40;0.30;;;;;;;;;;21147621;28;20277;-67
2022/12/27 08:37:40;;;;;;;0.43;0.40;;;;;;;;;;21130793;28;20211;-67
2022/12/27 08:47:42;;;;;;;5.83;3.17;;;;;;;;;;21129180;28;20257;-66
2022/12/27 08:57:44;;;;;;;8.03;2.17;;;;;;;;;;21115880;28;20698;-67
2022/12/27 09:07:46;;;;;;;1.00;0.43;;;;;;;;;;21018631;28;20188;-66
2022/12/27 09:17:48;;;;;;;2.23;0.70;;;;;;;;;;21113304;28;20212;-66
2022/12/27 09:27:50;;;;;;;0.43;0.20;;;;;;;;;;21076138;22;20224;-69
2022/12/27 09:37:51;;;;;;;3.10;0.37;;;;;;;;;;21073840;28;20217;-69
2022/12/27 09:48:00;;;;;;;0.50;0.33;;;;;;;;;;21070977;28;20286;-70
2022/12/27 09:58:07;;;;;;;1.47;0.57;;;;;;;;;;21056735;28;20290;-71
2022/12/27 10:08:18;;;;;;;1.27;0.40;;;6.40;99.90;;;;;;21053736;28;20249;-70
2022/12/27 10:18:20;;;;;;;1.63;0.53;;;;;;;;;;21059379;28;20265;-70
2022/12/27 10:28:26;;;;;;;3.20;0.50;;;;;;;;;;21046239;28;20269;-71
2022/12/27 10:38:34;;;;;;;1.80;0.40;;;;;;;;;;21064024;28;20237;-71
2022/12/27 10:48:37;;;;;;;0.90;0.50;;;;;;;;;;21028085;28;20257;-71
2022/12/27 10:58:50;;;;;;;0.30;0.30;;;7.40;99.90;;;;;;21038716;28;20257;-70
2022/12/27 11:08:53;;;;;;;0.10;0.10;;;;;;;;;;21058753;28;20208;-70
2022/12/27 11:18:57;;;;;;;0.23;0.20;;;;;;;;;;21053140;28;20216;-70
2022/12/27 11:29:02;;;;;;;1.07;0.43;;;7.70;99.90;;;;;;20957322;28;20271;-70
2022/12/27 11:39:07;;;;;;;1.50;0.60;;;7.50;99.90;;;;;;20974686;28;20229;-70
2022/12/27 11:49:17;;;;;;;1.93;0.80;;;;;;;;;;20988300;28;20746;-70
2022/12/27 11:59:45;;;;;;;0.20;0.20;;;;;;;;;;21064713;28;21001;-72
2022/12/27 12:09:55;;;;;;;0.70;0.40;;;;;;;;;;21060867;28;20224;-70
2022/12/27 12:20:05;;;;;;;0.90;0.50;;;;;;;;;;21069380;28;20212;-71
2022/12/27 12:30:16;;;;;;;0.60;0.40;;;;;;;;;;21077608;28;20249;-70
2022/12/27 12:40:32;;;;;;;0.50;0.40;;;;;;;;;;21124442;28;20257;-70
2022/12/27 12:51:03;;;;;;;0.77;0.53;;;;;;;;;;21142888;28;20216;-74
2022/12/27 13:01:15;;;;;;;0.73;0.40;;;;;;;;;;21053656;28;20220;-69
2022/12/27 13:11:34;;;;;;;0.60;0.50;;;;;;;;;;21073341;28;20212;-69
2022/12/27 13:21:38;;;;;;;0.63;0.30;;;7.20;99.90;;;;;;21074255;28;20255;-69
2022/12/27 13:31:40;;;;;;;1.33;0.80;;;;;;;;;;21071472;28;20290;-69
2022/12/27 13:42:39;;;;;;;1.00;0.30;;;7.30;99.90;;;;;;21052615;28;20217;-69
2022/12/27 13:52:43;;;;;;;2.07;0.70;;;;;;;;;;20869245;28;20263;-69
2022/12/27 14:02:48;;;;;;;0.50;0.23;;;;;;;;;;21039651;28;20238;-69
2022/12/27 14:12:57;;;;;;;0.20;0.10;;;;;;;;;;21029256;28;20652;-69
2022/12/27 14:23:10;;;;;;;1.30;0.70;;;;;;;;;;21049020;28;20584;-69
2022/12/27 14:33:33;;;;;;;1.83;0.40;;;7.00;99.90;;;;;;21064181;28;20286;-69
2022/12/27 14:43:37;;;;;;;0.80;0.40;;;7.10;99.90;;;;;;21058077;28;20213;-69
2022/12/27 14:54:16;;;;;;;1.07;0.57;;;6.50;99.90;;;;;;21125934;28;20223;-69
2022/12/27 15:04:37;;;;;;;1.47;0.30;;;;;;;;;;21136563;28;20632;-69
2022/12/27 15:15:03;;;;;;;0.80;0.50;;;;;;;;;;21136572;28;20254;-69
2022/12/27 15:25:14;;;;;;;0.80;0.50;;;;;;;;;;21153063;28;20806;-69
2022/12/27 15:35:19;;;;;;;2.73;1.00;;;;;;;;;;21153522;28;20626;-69
2022/12/27 15:45:41;;;;;;;3.97;0.80;;;;;;;;;;21094457;28;20565;-70
2022/12/27 15:55:49;;;;;;;1.73;0.60;;;;;;;;;;21064627;28;20587;-69
2022/12/27 16:05:52;;;;;;;1.13;0.50;;;;;;;;;;21009407;22;20264;-69
2022/12/27 16:15:54;;;;;;;0.90;0.50;;;6.30;99.90;;;;;;20989158;28;20229;-69
2022/12/27 16:26:04;;;;;;;1.33;0.60;;;;;;;;;;20989198;28;20259;-66
2022/12/27 16:36:14;;;;;;;2.97;1.20;;;6.10;99.90;;;;;;20939485;28;20233;-69
2022/12/27 16:46:53;;;;;;;1.23;0.93;;;6.00;99.90;;;;;;20903739;28;20225;-69
2022/12/27 16:57:14;;;;;;;0.73;0.43;;;;;;;;;;20903905;28;20252;-69
2022/12/27 17:07:41;;;;;;;1.87;0.70;;;6.10;99.90;;;;;;20904805;28;20583;-69
2022/12/27 17:17:45;;;;;;;0.67;0.47;;;;;;;;;;20903932;28;20218;-69
2022/12/27 17:28:03;;;;;;;1.23;0.80;;;5.80;99.90;;;;;;20873282;28;20243;-69
2022/12/27 17:38:11;;;;;;;1.00;0.50;;;;;;;;;;20896485;28;20261;-68
2022/12/27 17:48:24;;;;;;;0.47;0.33;;;;;;;;;;20880793;28;20676;-66
2022/12/27 17:58:33;;;;;;;1.23;0.60;;;;;;;;;;20880926;28;20639;-69
2022/12/27 18:08:35;;;;;;;2.30;0.70;;;5.80;99.90;;;;;;20899661;28;20229;-66
2022/12/27 18:18:37;;;;;;;1.30;0.80;;;5.30;99.90;;;;;;20844083;28;20608;-69
2022/12/27 18:28:40;;;;;;;1.63;0.83;;;;;;;;;;20880224;28;20721;-70
2022/12/27 18:38:46;;;;;;;1.17;0.80;;;;;;;;;;20922950;28;20291;-67
2022/12/27 18:48:48;;;;;;;1.97;1.00;;;;;;;;;;20911281;28;20592;-67
2022/12/27 18:59:27;;;;;;;2.00;1.20;;;5.00;99.90;;;;;;20906672;28;20279;-68
2022/12/27 19:09:50;;;;;;;2.03;1.00;;;5.20;99.90;;;;;;20806583;28;20240;-68
2022/12/27 19:19:55;;;;;;;1.53;0.90;;;5.10;99.90;;;;;;20894438;28;20245;-69
2022/12/27 19:29:57;;;;;;;4.73;1.07;;;;;;;;;;20895090;28;20218;-69
2022/12/27 19:39:59;;;;;;;0.93;0.73;;;;;;;;;;20865599;28;20221;-67
2022/12/27 19:50:01;;;;;;;2.03;1.27;;;;;;;;;;20904201;28;20213;-68
2022/12/27 20:00:06;;;;;;;1.43;0.70;;;;;;;;;;20908451;28;20222;-68
2022/12/27 20:10:10;;;;;;;2.93;2.03;;;;;;;;;;20981935;28;20271;-67
2022/12/27 20:20:12;;;;;;;1.30;0.70;;;;;;;;;;20945602;28;20601;-70
2022/12/27 20:30:14;;;;;;;2.77;1.60;;;;;;;;;;20957191;28;20206;-70
2022/12/27 20:40:16;;;;;;;4.73;1.60;;;;;;;;;;20939689;28;20217;-70
2022/12/27 20:50:17;;;;;;;3.30;0.70;;;;;;;;;;20885277;28;20646;-69
2022/12/27 21:00:19;;;;;;;2.20;0.97;;;;;;;;;;20909289;28;20257;-69
2022/12/27 21:10:21;;;;;;;3.13;1.53;;;;;;;;;;20955427;28;20225;-69
2022/12/27 21:20:23;;;;;;;1.80;0.87;;;;;;;;;;20991748;28;20233;-70
2022/12/27 21:30:25;;;;;;;1.83;1.20;;;;;;;;;;20990551;28;20263;-69
2022/12/27 21:40:27;;;;;;;1.23;0.77;;;;;;;;;;20989431;28;20721;-69
2022/12/27 21:50:28;;;;;;;2.10;1.37;;;;;;;;;;20914344;28;20578;-71
2022/12/27 22:00:30;;;;;;;1.30;1.07;;;;;;;;;;20920499;28;20213;-71
2022/12/27 22:10:32;;;;;;;2.87;0.97;;;;;;;;;;20900138;28;20225;-68
2022/12/27 22:20:35;;;;;;;1.17;0.80;;;;;;;;;;20907791;28;20236;-68
2022/12/27 22:30:37;;;;;;;1.57;1.03;;;;;;;;;;20899465;28;20563;-68
2022/12/27 22:40:39;;;;;;;0.80;0.73;;;;;;;;;;20900018;28;20245;-65
2022/12/27 22:50:41;;;;;;;1.57;1.00;;;;;;;;;;20899810;28;20209;-68
2022/12/27 23:00:43;;;;;;;1.00;0.60;;;;;;;;;;20861739;28;1068475;-69
2022/12/27 23:10:45;;;;;;;1.13;1.03;;;;;;;;;;20980492;22;20278;-69
2022/12/27 23:20:47;;;;;;;0.97;0.87;;;;;;;;;;21027698;28;20286;-69
2022/12/27 23:30:48;;;;;;;0.73;0.73;;;3.60;99.90;;;;;;21066931;28;20679;-70
2022/12/27 23:40:54;;;;;;;2.13;1.07;;;;;;;;;;21073323;28;20290;-69
2022/12/27 23:50:56;;;;;;;1.67;1.00;;;;;;;;;;21082232;28;20273;-69
